sensor_id;sensor_type;location;lat;lon;timestamp;P1;durP1;ratioP1;P2;durP2;ratioP2
17818;SDS011;9034;50.284;19.310;2023-09-30T00:01:01;24.52;;;19.02;;
17818;SDS011;9034;50.284;19.310;2023-09-30T00:02:04;20.75;;;17.38;;
17818;SDS011;9034;50.284;19.310;2023-09-30T00:03:06;22.70;;;18.27;;
17818;SDS011;9034;50.284;19.310;2023-09-30T00:04:09;26.27;;;19.20;;
17818;SDS011;9034;50.284;19.310;2023-09-30T00:05:11;20.65;;;17.48;;
17818;SDS011;9034;50.284;19.310;2023-09-30T00:06:16;22.00;;;16.55;;
17818;SDS011;9034;50.284;19.310;2023-09-30T00:07:18;22.33;;;17.25;;
17818;SDS011;9034;50.284;19.310;2023-09-30T00:08:22;23.02;;;17.38;;
17818;SDS011;9034;50.284;19.310;2023-09-30T00:09:24;23.10;;;16.50;;
17818;SDS011;9034;50.284;19.310;2023-09-30T00:10:27;23.23;;;17.65;;
17818;SDS011;9034;50.284;19.310;2023-09-30T00:11:29;26.33;;;19.67;;
17818;SDS011;9034;50.284;19.310;2023-09-30T00:12:31;22.58;;;17.35;;
17818;SDS011;9034;50.284;19.310;2023-09-30T00:13:34;24.48;;;17.77;;
17818;SDS011;9034;50.284;19.310;2023-09-30T00:14:36;19.35;;;16.95;;
17818;SDS011;9034;50.284;19.310;2023-09-30T00:15:39;22.73;;;18.17;;
17818;SDS011;9034;50.284;19.310;2023-09-30T00:16:42;28.02;;;19.25;;
17818;SDS011;9034;50.284;19.310;2023-09-30T00:17:44;23.98;;;19.38;;
17818;SDS011;9034;50.284;19.310;2023-09-30T00:18:47;23.38;;;18.85;;
17818;SDS011;9034;50.284;19.310;2023-09-30T00:19:49;21.95;;;17.92;;
17818;SDS011;9034;50.284;19.310;2023-09-30T00:20:52;25.42;;;19.08;;
17818;SDS011;9034;50.284;19.310;2023-09-30T00:21:54;23.15;;;18.55;;
17818;SDS011;9034;50.284;19.310;2023-09-30T00:22:57;24.45;;;19.10;;
17818;SDS011;9034;50.284;19.310;2023-09-30T00:24:00;24.05;;;19.13;;
17818;SDS011;9034;50.284;19.310;2023-09-30T00:25:04;24.52;;;19.95;;
17818;SDS011;9034;50.284;19.310;2023-09-30T00:26:06;25.70;;;20.15;;
17818;SDS011;9034;50.284;19.310;2023-09-30T00:27:09;22.02;;;18.42;;
17818;SDS011;9034;50.284;19.310;2023-09-30T00:28:11;22.60;;;18.20;;
17818;SDS011;9034;50.284;19.310;2023-09-30T00:29:14;23.13;;;18.48;;
17818;SDS011;9034;50.284;19.310;2023-09-30T00:30:16;25.58;;;19.88;;
17818;SDS011;9034;50.284;19.310;2023-09-30T00:31:19;26.73;;;19.40;;
17818;SDS011;9034;50.284;19.310;2023-09-30T00:32:21;22.50;;;18.42;;
17818;SDS011;9034;50.284;19.310;2023-09-30T00:33:24;28.08;;;19.02;;
17818;SDS011;9034;50.284;19.310;2023-09-30T00:34:27;19.33;;;16.05;;
17818;SDS011;9034;50.284;19.310;2023-09-30T00:35:31;16.60;;;14.90;;
17818;SDS011;9034;50.284;19.310;2023-09-30T00:36:33;19.60;;;15.50;;
17818;SDS011;9034;50.284;19.310;2023-09-30T00:37:36;20.13;;;17.75;;
17818;SDS011;9034;50.284;19.310;2023-09-30T00:38:38;21.20;;;17.50;;
17818;SDS011;9034;50.284;19.310;2023-09-30T00:39:42;21.88;;;18.73;;
17818;SDS011;9034;50.284;19.310;2023-09-30T00:40:47;24.33;;;18.25;;
17818;SDS011;9034;50.284;19.310;2023-09-30T00:41:50;23.73;;;18.38;;
17818;SDS011;9034;50.284;19.310;2023-09-30T00:42:52;32.00;;;18.30;;
17818;SDS011;9034;50.284;19.310;2023-09-30T00:43:54;20.05;;;17.25;;
17818;SDS011;9034;50.284;19.310;2023-09-30T00:44:57;22.05;;;17.95;;
17818;SDS011;9034;50.284;19.310;2023-09-30T00:46:02;21.98;;;18.02;;
17818;SDS011;9034;50.284;19.310;2023-09-30T00:47:08;52.40;;;21.38;;
17818;SDS011;9034;50.284;19.310;2023-09-30T00:48:11;31.95;;;16.75;;
17818;SDS011;9034;50.284;19.310;2023-09-30T00:49:14;40.63;;;17.58;;
17818;SDS011;9034;50.284;19.310;2023-09-30T00:50:19;26.73;;;18.65;;
17818;SDS011;9034;50.284;19.310;2023-09-30T00:51:22;25.33;;;19.98;;
17818;SDS011;9034;50.284;19.310;2023-09-30T00:52:25;28.23;;;19.70;;
17818;SDS011;9034;50.284;19.310;2023-09-30T00:53:28;24.25;;;18.67;;
17818;SDS011;9034;50.284;19.310;2023-09-30T00:54:32;22.58;;;17.50;;
17818;SDS011;9034;50.284;19.310;2023-09-30T00:55:35;22.83;;;18.92;;
17818;SDS011;9034;50.284;19.310;2023-09-30T00:56:39;21.05;;;17.63;;
17818;SDS011;9034;50.284;19.310;2023-09-30T00:57:45;22.20;;;18.40;;
17818;SDS011;9034;50.284;19.310;2023-09-30T00:58:48;20.08;;;16.70;;
17818;SDS011;9034;50.284;19.310;2023-09-30T00:59:52;22.30;;;17.05;;
17818;SDS011;9034;50.284;19.310;2023-09-30T01:00:56;22.88;;;18.45;;
17818;SDS011;9034;50.284;19.310;2023-09-30T01:01:58;19.42;;;16.92;;
17818;SDS011;9034;50.284;19.310;2023-09-30T01:03:02;20.15;;;17.08;;
17818;SDS011;9034;50.284;19.310;2023-09-30T01:04:06;25.40;;;19.10;;
17818;SDS011;9034;50.284;19.310;2023-09-30T01:05:09;21.42;;;16.75;;
17818;SDS011;9034;50.284;19.310;2023-09-30T01:06:11;19.50;;;16.42;;
17818;SDS011;9034;50.284;19.310;2023-09-30T01:07:15;21.52;;;17.90;;
17818;SDS011;9034;50.284;19.310;2023-09-30T01:08:16;22.17;;;17.60;;
17818;SDS011;9034;50.284;19.310;2023-09-30T01:09:21;23.70;;;17.52;;
17818;SDS011;9034;50.284;19.310;2023-09-30T01:10:23;17.60;;;15.40;;
17818;SDS011;9034;50.284;19.310;2023-09-30T01:11:27;19.35;;;15.88;;
17818;SDS011;9034;50.284;19.310;2023-09-30T01:12:29;22.67;;;18.02;;
17818;SDS011;9034;50.284;19.310;2023-09-30T01:13:32;19.15;;;15.32;;
17818;SDS011;9034;50.284;19.310;2023-09-30T01:14:36;19.63;;;17.20;;
17818;SDS011;9034;50.284;19.310;2023-09-30T01:15:40;21.85;;;17.00;;
17818;SDS011;9034;50.284;19.310;2023-09-30T01:16:43;21.08;;;16.35;;
17818;SDS011;9034;50.284;19.310;2023-09-30T01:17:45;22.75;;;18.60;;
17818;SDS011;9034;50.284;19.310;2023-09-30T01:18:48;22.85;;;18.38;;
17818;SDS011;9034;50.284;19.310;2023-09-30T01:19:50;23.00;;;18.40;;
17818;SDS011;9034;50.284;19.310;2023-09-30T01:20:53;21.92;;;17.80;;
17818;SDS011;9034;50.284;19.310;2023-09-30T01:21:58;19.08;;;17.08;;
17818;SDS011;9034;50.284;19.310;2023-09-30T01:23:02;22.48;;;17.58;;
17818;SDS011;9034;50.284;19.310;2023-09-30T01:24:05;22.70;;;17.90;;
17818;SDS011;9034;50.284;19.310;2023-09-30T01:25:08;18.90;;;16.67;;
17818;SDS011;9034;50.284;19.310;2023-09-30T01:26:11;19.83;;;17.23;;
17818;SDS011;9034;50.284;19.310;2023-09-30T01:27:15;20.27;;;18.05;;
17818;SDS011;9034;50.284;19.310;2023-09-30T01:28:20;23.25;;;18.63;;
17818;SDS011;9034;50.284;19.310;2023-09-30T01:29:23;22.05;;;17.65;;
17818;SDS011;9034;50.284;19.310;2023-09-30T01:30:27;23.65;;;19.10;;
17818;SDS011;9034;50.284;19.310;2023-09-30T01:32:06;26.35;;;18.63;;
17818;SDS011;9034;50.284;19.310;2023-09-30T01:33:10;24.83;;;20.00;;
17818;SDS011;9034;50.284;19.310;2023-09-30T01:34:13;22.67;;;19.63;;
17818;SDS011;9034;50.284;19.310;2023-09-30T01:35:16;24.90;;;19.83;;
17818;SDS011;9034;50.284;19.310;2023-09-30T01:36:19;24.85;;;19.45;;
17818;SDS011;9034;50.284;19.310;2023-09-30T01:37:22;23.70;;;18.48;;
17818;SDS011;9034;50.284;19.310;2023-09-30T01:38:29;25.05;;;18.92;;
17818;SDS011;9034;50.284;19.310;2023-09-30T01:39:31;23.15;;;19.05;;
17818;SDS011;9034;50.284;19.310;2023-09-30T01:40:35;23.48;;;17.88;;
17818;SDS011;9034;50.284;19.310;2023-09-30T01:41:38;24.60;;;19.08;;
17818;SDS011;9034;50.284;19.310;2023-09-30T01:42:41;22.80;;;19.20;;
17818;SDS011;9034;50.284;19.310;2023-09-30T01:43:44;23.83;;;18.33;;
17818;SDS011;9034;50.284;19.310;2023-09-30T01:44:48;20.70;;;17.05;;
17818;SDS011;9034;50.284;19.310;2023-09-30T01:45:50;21.13;;;17.42;;
17818;SDS011;9034;50.284;19.310;2023-09-30T01:46:53;24.38;;;18.35;;
17818;SDS011;9034;50.284;19.310;2023-09-30T01:47:55;20.92;;;17.63;;
17818;SDS011;9034;50.284;19.310;2023-09-30T01:48:57;23.58;;;19.40;;
17818;SDS011;9034;50.284;19.310;2023-09-30T01:50:00;25.58;;;20.50;;
17818;SDS011;9034;50.284;19.310;2023-09-30T01:51:02;25.17;;;19.40;;
17818;SDS011;9034;50.284;19.310;2023-09-30T01:52:05;22.45;;;17.95;;
17818;SDS011;9034;50.284;19.310;2023-09-30T01:53:08;20.55;;;17.35;;
17818;SDS011;9034;50.284;19.310;2023-09-30T01:54:10;20.80;;;17.70;;
17818;SDS011;9034;50.284;19.310;2023-09-30T01:55:13;25.60;;;17.67;;
17818;SDS011;9034;50.284;19.310;2023-09-30T01:56:16;22.38;;;18.17;;
17818;SDS011;9034;50.284;19.310;2023-09-30T01:57:18;23.38;;;18.02;;
17818;SDS011;9034;50.284;19.310;2023-09-30T01:58:21;24.67;;;18.45;;
17818;SDS011;9034;50.284;19.310;2023-09-30T01:59:24;23.90;;;17.63;;
17818;SDS011;9034;50.284;19.310;2023-09-30T02:00:26;19.92;;;16.65;;
17818;SDS011;9034;50.284;19.310;2023-09-30T02:01:29;20.90;;;17.17;;
17818;SDS011;9034;50.284;19.310;2023-09-30T02:02:31;21.40;;;16.92;;
17818;SDS011;9034;50.284;19.310;2023-09-30T02:03:34;23.90;;;18.23;;
17818;SDS011;9034;50.284;19.310;2023-09-30T02:04:39;22.25;;;17.33;;
17818;SDS011;9034;50.284;19.310;2023-09-30T02:05:42;23.63;;;17.83;;
17818;SDS011;9034;50.284;19.310;2023-09-30T02:06:44;23.98;;;17.25;;
17818;SDS011;9034;50.284;19.310;2023-09-30T02:07:47;22.73;;;18.08;;
17818;SDS011;9034;50.284;19.310;2023-09-30T02:08:51;20.45;;;15.60;;
17818;SDS011;9034;50.284;19.310;2023-09-30T02:09:54;24.67;;;17.85;;
17818;SDS011;9034;50.284;19.310;2023-09-30T02:10:56;20.75;;;16.73;;
17818;SDS011;9034;50.284;19.310;2023-09-30T02:11:58;21.15;;;16.95;;
17818;SDS011;9034;50.284;19.310;2023-09-30T02:13:00;18.98;;;16.30;;
17818;SDS011;9034;50.284;19.310;2023-09-30T02:14:08;21.40;;;17.60;;
17818;SDS011;9034;50.284;19.310;2023-09-30T02:15:14;21.10;;;16.60;;
17818;SDS011;9034;50.284;19.310;2023-09-30T02:16:17;20.33;;;17.17;;
17818;SDS011;9034;50.284;19.310;2023-09-30T02:17:19;20.63;;;16.35;;
17818;SDS011;9034;50.284;19.310;2023-09-30T02:18:22;23.30;;;16.98;;
17818;SDS011;9034;50.284;19.310;2023-09-30T02:19:25;21.23;;;16.38;;
17818;SDS011;9034;50.284;19.310;2023-09-30T02:20:32;19.10;;;16.25;;
17818;SDS011;9034;50.284;19.310;2023-09-30T02:21:34;26.83;;;17.40;;
17818;SDS011;9034;50.284;19.310;2023-09-30T02:22:37;21.35;;;16.05;;
17818;SDS011;9034;50.284;19.310;2023-09-30T02:23:40;20.50;;;15.68;;
17818;SDS011;9034;50.284;19.310;2023-09-30T02:24:44;19.38;;;16.20;;
17818;SDS011;9034;50.284;19.310;2023-09-30T02:25:46;19.63;;;16.23;;
17818;SDS011;9034;50.284;19.310;2023-09-30T02:26:49;20.10;;;16.10;;
17818;SDS011;9034;50.284;19.310;2023-09-30T02:27:51;19.67;;;16.80;;
17818;SDS011;9034;50.284;19.310;2023-09-30T02:28:54;24.70;;;16.65;;
17818;SDS011;9034;50.284;19.310;2023-09-30T02:29:55;20.25;;;16.40;;
17818;SDS011;9034;50.284;19.310;2023-09-30T02:30:58;19.00;;;16.38;;
17818;SDS011;9034;50.284;19.310;2023-09-30T02:32:00;21.55;;;16.95;;
17818;SDS011;9034;50.284;19.310;2023-09-30T02:33:03;23.02;;;16.33;;
17818;SDS011;9034;50.284;19.310;2023-09-30T02:34:06;19.73;;;16.60;;
17818;SDS011;9034;50.284;19.310;2023-09-30T02:35:09;18.70;;;15.60;;
17818;SDS011;9034;50.284;19.310;2023-09-30T02:36:12;20.00;;;15.98;;
17818;SDS011;9034;50.284;19.310;2023-09-30T02:37:17;21.50;;;16.08;;
17818;SDS011;9034;50.284;19.310;2023-09-30T02:38:19;24.02;;;16.85;;
17818;SDS011;9034;50.284;19.310;2023-09-30T02:39:24;20.98;;;16.42;;
17818;SDS011;9034;50.284;19.310;2023-09-30T02:40:29;20.13;;;15.80;;
17818;SDS011;9034;50.284;19.310;2023-09-30T02:41:32;18.15;;;14.75;;
17818;SDS011;9034;50.284;19.310;2023-09-30T02:42:34;19.95;;;16.08;;
17818;SDS011;9034;50.284;19.310;2023-09-30T02:43:37;20.17;;;15.93;;
17818;SDS011;9034;50.284;19.310;2023-09-30T02:44:39;22.92;;;16.30;;
17818;SDS011;9034;50.284;19.310;2023-09-30T02:45:43;23.23;;;15.20;;
17818;SDS011;9034;50.284;19.310;2023-09-30T02:46:46;24.20;;;16.15;;
17818;SDS011;9034;50.284;19.310;2023-09-30T02:47:49;20.70;;;16.80;;
17818;SDS011;9034;50.284;19.310;2023-09-30T02:48:51;19.30;;;16.08;;
17818;SDS011;9034;50.284;19.310;2023-09-30T02:49:53;19.23;;;15.85;;
17818;SDS011;9034;50.284;19.310;2023-09-30T02:50:58;26.40;;;16.75;;
17818;SDS011;9034;50.284;19.310;2023-09-30T02:52:01;21.77;;;15.98;;
17818;SDS011;9034;50.284;19.310;2023-09-30T02:53:05;18.58;;;16.35;;
17818;SDS011;9034;50.284;19.310;2023-09-30T02:54:07;19.10;;;16.48;;
17818;SDS011;9034;50.284;19.310;2023-09-30T02:55:10;20.70;;;14.90;;
17818;SDS011;9034;50.284;19.310;2023-09-30T02:56:14;16.75;;;14.60;;
17818;SDS011;9034;50.284;19.310;2023-09-30T02:57:17;18.30;;;15.48;;
17818;SDS011;9034;50.284;19.310;2023-09-30T02:58:19;19.40;;;15.52;;
17818;SDS011;9034;50.284;19.310;2023-09-30T02:59:22;16.00;;;14.30;;
17818;SDS011;9034;50.284;19.310;2023-09-30T03:00:24;20.20;;;15.70;;
17818;SDS011;9034;50.284;19.310;2023-09-30T03:01:29;18.67;;;15.30;;
17818;SDS011;9034;50.284;19.310;2023-09-30T03:02:32;17.55;;;14.80;;
17818;SDS011;9034;50.284;19.310;2023-09-30T03:03:35;20.95;;;15.40;;
17818;SDS011;9034;50.284;19.310;2023-09-30T03:04:38;18.45;;;15.00;;
17818;SDS011;9034;50.284;19.310;2023-09-30T03:05:41;20.75;;;15.38;;
17818;SDS011;9034;50.284;19.310;2023-09-30T03:06:43;16.98;;;15.02;;
17818;SDS011;9034;50.284;19.310;2023-09-30T03:07:46;16.13;;;14.25;;
17818;SDS011;9034;50.284;19.310;2023-09-30T03:08:52;16.48;;;14.45;;
17818;SDS011;9034;50.284;19.310;2023-09-30T03:09:54;18.70;;;15.13;;
17818;SDS011;9034;50.284;19.310;2023-09-30T03:10:57;19.45;;;14.70;;
17818;SDS011;9034;50.284;19.310;2023-09-30T03:12:01;16.60;;;14.65;;
17818;SDS011;9034;50.284;19.310;2023-09-30T03:13:06;21.30;;;15.15;;
17818;SDS011;9034;50.284;19.310;2023-09-30T03:14:08;16.52;;;14.70;;
17818;SDS011;9034;50.284;19.310;2023-09-30T03:15:12;18.05;;;15.75;;
17818;SDS011;9034;50.284;19.310;2023-09-30T03:16:14;17.77;;;15.00;;
17818;SDS011;9034;50.284;19.310;2023-09-30T03:17:17;16.05;;;14.38;;
17818;SDS011;9034;50.284;19.310;2023-09-30T03:18:20;20.33;;;14.32;;
17818;SDS011;9034;50.284;19.310;2023-09-30T03:19:28;20.52;;;14.70;;
17818;SDS011;9034;50.284;19.310;2023-09-30T03:20:30;19.33;;;14.65;;
17818;SDS011;9034;50.284;19.310;2023-09-30T03:21:32;20.77;;;14.15;;
17818;SDS011;9034;50.284;19.310;2023-09-30T03:22:35;17.98;;;15.13;;
17818;SDS011;9034;50.284;19.310;2023-09-30T03:23:37;16.67;;;14.00;;
17818;SDS011;9034;50.284;19.310;2023-09-30T03:24:41;18.73;;;14.43;;
17818;SDS011;9034;50.284;19.310;2023-09-30T03:25:44;16.45;;;14.75;;
17818;SDS011;9034;50.284;19.310;2023-09-30T03:26:47;19.85;;;14.35;;
17818;SDS011;9034;50.284;19.310;2023-09-30T03:27:50;17.83;;;13.32;;
17818;SDS011;9034;50.284;19.310;2023-09-30T03:28:53;19.75;;;14.68;;
17818;SDS011;9034;50.284;19.310;2023-09-30T03:29:55;16.40;;;13.88;;
17818;SDS011;9034;50.284;19.310;2023-09-30T03:30:57;17.38;;;14.50;;
17818;SDS011;9034;50.284;19.310;2023-09-30T03:32:00;16.63;;;14.88;;
17818;SDS011;9034;50.284;19.310;2023-09-30T03:33:02;18.58;;;14.15;;
17818;SDS011;9034;50.284;19.310;2023-09-30T03:34:06;15.75;;;14.05;;
17818;SDS011;9034;50.284;19.310;2023-09-30T03:35:08;16.58;;;14.38;;
17818;SDS011;9034;50.284;19.310;2023-09-30T03:36:16;15.20;;;13.35;;
17818;SDS011;9034;50.284;19.310;2023-09-30T03:37:20;16.58;;;14.23;;
17818;SDS011;9034;50.284;19.310;2023-09-30T03:38:23;16.63;;;13.77;;
17818;SDS011;9034;50.284;19.310;2023-09-30T03:39:25;24.27;;;14.40;;
17818;SDS011;9034;50.284;19.310;2023-09-30T03:40:28;22.10;;;14.93;;
17818;SDS011;9034;50.284;19.310;2023-09-30T03:41:35;20.10;;;14.70;;
17818;SDS011;9034;50.284;19.310;2023-09-30T03:42:39;18.77;;;13.98;;
17818;SDS011;9034;50.284;19.310;2023-09-30T03:43:42;15.85;;;14.05;;
17818;SDS011;9034;50.284;19.310;2023-09-30T03:44:45;18.35;;;13.65;;
17818;SDS011;9034;50.284;19.310;2023-09-30T03:45:47;17.70;;;14.32;;
17818;SDS011;9034;50.284;19.310;2023-09-30T03:46:50;16.25;;;14.32;;
17818;SDS011;9034;50.284;19.310;2023-09-30T03:47:53;17.23;;;13.88;;
17818;SDS011;9034;50.284;19.310;2023-09-30T03:48:55;19.67;;;14.52;;
17818;SDS011;9034;50.284;19.310;2023-09-30T03:49:58;16.63;;;13.55;;
17818;SDS011;9034;50.284;19.310;2023-09-30T03:51:07;21.90;;;14.15;;
17818;SDS011;9034;50.284;19.310;2023-09-30T03:52:11;22.58;;;14.77;;
17818;SDS011;9034;50.284;19.310;2023-09-30T03:53:16;21.70;;;14.35;;
17818;SDS011;9034;50.284;19.310;2023-09-30T03:54:19;17.20;;;13.45;;
17818;SDS011;9034;50.284;19.310;2023-09-30T03:55:21;21.08;;;14.38;;
17818;SDS011;9034;50.284;19.310;2023-09-30T03:56:24;20.95;;;14.20;;
17818;SDS011;9034;50.284;19.310;2023-09-30T03:57:26;16.38;;;13.88;;
17818;SDS011;9034;50.284;19.310;2023-09-30T03:58:30;17.90;;;14.52;;
17818;SDS011;9034;50.284;19.310;2023-09-30T03:59:33;20.48;;;14.90;;
17818;SDS011;9034;50.284;19.310;2023-09-30T04:00:36;19.77;;;14.98;;
17818;SDS011;9034;50.284;19.310;2023-09-30T04:01:38;17.45;;;13.88;;
17818;SDS011;9034;50.284;19.310;2023-09-30T04:02:42;19.10;;;14.75;;
17818;SDS011;9034;50.284;19.310;2023-09-30T04:03:44;22.42;;;13.95;;
17818;SDS011;9034;50.284;19.310;2023-09-30T04:04:47;19.33;;;14.82;;
17818;SDS011;9034;50.284;19.310;2023-09-30T04:05:51;18.25;;;13.95;;
17818;SDS011;9034;50.284;19.310;2023-09-30T04:06:54;18.30;;;14.25;;
17818;SDS011;9034;50.284;19.310;2023-09-30T04:07:56;17.75;;;14.65;;
17818;SDS011;9034;50.284;19.310;2023-09-30T04:08:59;21.38;;;14.50;;
17818;SDS011;9034;50.284;19.310;2023-09-30T04:10:01;16.38;;;13.18;;
17818;SDS011;9034;50.284;19.310;2023-09-30T04:11:04;25.15;;;14.68;;
17818;SDS011;9034;50.284;19.310;2023-09-30T04:12:06;16.40;;;14.07;;
17818;SDS011;9034;50.284;19.310;2023-09-30T04:13:09;15.52;;;13.15;;
17818;SDS011;9034;50.284;19.310;2023-09-30T04:14:12;21.92;;;13.35;;
17818;SDS011;9034;50.284;19.310;2023-09-30T04:15:16;20.63;;;13.95;;
17818;SDS011;9034;50.284;19.310;2023-09-30T04:16:18;16.73;;;13.57;;
17818;SDS011;9034;50.284;19.310;2023-09-30T04:17:22;20.80;;;14.05;;
17818;SDS011;9034;50.284;19.310;2023-09-30T04:18:24;15.77;;;13.30;;
17818;SDS011;9034;50.284;19.310;2023-09-30T04:19:27;18.98;;;14.57;;
17818;SDS011;9034;50.284;19.310;2023-09-30T04:20:31;16.67;;;14.32;;
17818;SDS011;9034;50.284;19.310;2023-09-30T04:21:34;19.02;;;14.07;;
17818;SDS011;9034;50.284;19.310;2023-09-30T04:22:36;21.30;;;14.65;;
17818;SDS011;9034;50.284;19.310;2023-09-30T04:23:40;18.05;;;13.90;;
17818;SDS011;9034;50.284;19.310;2023-09-30T04:24:43;17.83;;;13.95;;
17818;SDS011;9034;50.284;19.310;2023-09-30T04:25:46;19.33;;;13.65;;
17818;SDS011;9034;50.284;19.310;2023-09-30T04:26:48;16.00;;;13.15;;
17818;SDS011;9034;50.284;19.310;2023-09-30T04:27:51;20.30;;;13.98;;
17818;SDS011;9034;50.284;19.310;2023-09-30T04:28:54;25.92;;;13.82;;
17818;SDS011;9034;50.284;19.310;2023-09-30T04:29:57;19.85;;;13.93;;
17818;SDS011;9034;50.284;19.310;2023-09-30T04:31:00;19.73;;;14.38;;
17818;SDS011;9034;50.284;19.310;2023-09-30T04:32:04;18.73;;;14.57;;
17818;SDS011;9034;50.284;19.310;2023-09-30T04:33:07;22.27;;;15.07;;
17818;SDS011;9034;50.284;19.310;2023-09-30T04:34:13;17.05;;;14.57;;
17818;SDS011;9034;50.284;19.310;2023-09-30T04:35:15;20.20;;;14.95;;
17818;SDS011;9034;50.284;19.310;2023-09-30T04:36:19;19.63;;;14.00;;
17818;SDS011;9034;50.284;19.310;2023-09-30T04:37:21;18.92;;;14.82;;
17818;SDS011;9034;50.284;19.310;2023-09-30T04:38:23;18.95;;;15.77;;
17818;SDS011;9034;50.284;19.310;2023-09-30T04:39:26;24.15;;;14.65;;
17818;SDS011;9034;50.284;19.310;2023-09-30T04:40:28;20.17;;;14.50;;
17818;SDS011;9034;50.284;19.310;2023-09-30T04:41:31;17.85;;;13.93;;
17818;SDS011;9034;50.284;19.310;2023-09-30T04:42:33;19.77;;;14.43;;
17818;SDS011;9034;50.284;19.310;2023-09-30T04:43:37;16.95;;;13.93;;
17818;SDS011;9034;50.284;19.310;2023-09-30T04:44:40;25.92;;;14.75;;
17818;SDS011;9034;50.284;19.310;2023-09-30T04:45:43;17.42;;;13.80;;
17818;SDS011;9034;50.284;19.310;2023-09-30T04:46:46;18.63;;;13.75;;
17818;SDS011;9034;50.284;19.310;2023-09-30T04:47:49;17.52;;;13.13;;
17818;SDS011;9034;50.284;19.310;2023-09-30T04:48:51;19.23;;;13.73;;
17818;SDS011;9034;50.284;19.310;2023-09-30T04:49:54;16.92;;;14.52;;
17818;SDS011;9034;50.284;19.310;2023-09-30T04:50:56;18.77;;;13.98;;
17818;SDS011;9034;50.284;19.310;2023-09-30T04:51:58;22.25;;;14.70;;
17818;SDS011;9034;50.284;19.310;2023-09-30T04:53:01;24.40;;;15.18;;
17818;SDS011;9034;50.284;19.310;2023-09-30T04:54:03;18.98;;;13.57;;
17818;SDS011;9034;50.284;19.310;2023-09-30T04:55:08;16.95;;;14.00;;
17818;SDS011;9034;50.284;19.310;2023-09-30T04:56:13;20.40;;;13.93;;
17818;SDS011;9034;50.284;19.310;2023-09-30T04:57:16;17.05;;;13.93;;
17818;SDS011;9034;50.284;19.310;2023-09-30T04:58:18;18.73;;;14.68;;
17818;SDS011;9034;50.284;19.310;2023-09-30T04:59:21;19.77;;;14.70;;
17818;SDS011;9034;50.284;19.310;2023-09-30T05:00:26;26.85;;;15.90;;
17818;SDS011;9034;50.284;19.310;2023-09-30T05:01:32;19.15;;;14.32;;
17818;SDS011;9034;50.284;19.310;2023-09-30T05:02:35;21.52;;;15.13;;
17818;SDS011;9034;50.284;19.310;2023-09-30T05:03:38;20.05;;;14.88;;
17818;SDS011;9034;50.284;19.310;2023-09-30T05:04:40;28.02;;;16.02;;
17818;SDS011;9034;50.284;19.310;2023-09-30T05:05:43;20.50;;;15.10;;
17818;SDS011;9034;50.284;19.310;2023-09-30T05:06:45;20.58;;;14.73;;
17818;SDS011;9034;50.284;19.310;2023-09-30T05:07:47;19.35;;;14.75;;
17818;SDS011;9034;50.284;19.310;2023-09-30T05:08:49;20.55;;;14.70;;
17818;SDS011;9034;50.284;19.310;2023-09-30T05:09:52;19.17;;;14.10;;
17818;SDS011;9034;50.284;19.310;2023-09-30T05:10:55;20.17;;;15.10;;
17818;SDS011;9034;50.284;19.310;2023-09-30T05:11:58;18.75;;;14.82;;
17818;SDS011;9034;50.284;19.310;2023-09-30T05:13:00;18.17;;;14.93;;
17818;SDS011;9034;50.284;19.310;2023-09-30T05:14:04;22.20;;;14.93;;
17818;SDS011;9034;50.284;19.310;2023-09-30T05:15:07;22.63;;;15.68;;
17818;SDS011;9034;50.284;19.310;2023-09-30T05:16:12;17.70;;;14.93;;
17818;SDS011;9034;50.284;19.310;2023-09-30T05:17:15;18.85;;;14.30;;
17818;SDS011;9034;50.284;19.310;2023-09-30T05:18:18;22.15;;;14.77;;
17818;SDS011;9034;50.284;19.310;2023-09-30T05:19:21;21.15;;;14.57;;
17818;SDS011;9034;50.284;19.310;2023-09-30T05:20:23;21.65;;;15.23;;
17818;SDS011;9034;50.284;19.310;2023-09-30T05:21:26;19.60;;;14.30;;
17818;SDS011;9034;50.284;19.310;2023-09-30T05:22:28;19.98;;;14.73;;
17818;SDS011;9034;50.284;19.310;2023-09-30T05:23:31;18.33;;;14.38;;
17818;SDS011;9034;50.284;19.310;2023-09-30T05:24:34;20.60;;;14.35;;
17818;SDS011;9034;50.284;19.310;2023-09-30T05:25:37;19.10;;;14.23;;
17818;SDS011;9034;50.284;19.310;2023-09-30T05:26:39;20.88;;;14.73;;
17818;SDS011;9034;50.284;19.310;2023-09-30T05:27:42;21.73;;;14.68;;
17818;SDS011;9034;50.284;19.310;2023-09-30T05:28:44;23.98;;;15.50;;
17818;SDS011;9034;50.284;19.310;2023-09-30T05:29:46;22.88;;;15.82;;
17818;SDS011;9034;50.284;19.310;2023-09-30T05:30:50;19.80;;;15.15;;
17818;SDS011;9034;50.284;19.310;2023-09-30T05:31:52;18.42;;;14.65;;
17818;SDS011;9034;50.284;19.310;2023-09-30T05:32:55;17.75;;;14.27;;
17818;SDS011;9034;50.284;19.310;2023-09-30T05:33:58;18.00;;;15.32;;
17818;SDS011;9034;50.284;19.310;2023-09-30T05:35:02;22.90;;;17.83;;
17818;SDS011;9034;50.284;19.310;2023-09-30T05:36:06;22.30;;;18.25;;
17818;SDS011;9034;50.284;19.310;2023-09-30T05:37:09;31.15;;;21.70;;
17818;SDS011;9034;50.284;19.310;2023-09-30T05:38:10;28.45;;;21.00;;
17818;SDS011;9034;50.284;19.310;2023-09-30T05:39:14;27.73;;;19.25;;
17818;SDS011;9034;50.284;19.310;2023-09-30T05:40:21;26.15;;;19.25;;
17818;SDS011;9034;50.284;19.310;2023-09-30T05:41:28;21.58;;;18.35;;
17818;SDS011;9034;50.284;19.310;2023-09-30T05:42:31;25.15;;;18.77;;
17818;SDS011;9034;50.284;19.310;2023-09-30T05:43:33;21.42;;;17.30;;
17818;SDS011;9034;50.284;19.310;2023-09-30T05:44:35;21.15;;;17.20;;
17818;SDS011;9034;50.284;19.310;2023-09-30T05:45:37;23.95;;;16.90;;
17818;SDS011;9034;50.284;19.310;2023-09-30T05:46:42;23.27;;;17.67;;
17818;SDS011;9034;50.284;19.310;2023-09-30T05:47:45;23.42;;;18.15;;
17818;SDS011;9034;50.284;19.310;2023-09-30T05:48:52;22.48;;;17.08;;
17818;SDS011;9034;50.284;19.310;2023-09-30T05:49:56;22.38;;;16.77;;
17818;SDS011;9034;50.284;19.310;2023-09-30T05:50:58;20.52;;;16.30;;
17818;SDS011;9034;50.284;19.310;2023-09-30T05:52:00;22.92;;;15.98;;
17818;SDS011;9034;50.284;19.310;2023-09-30T05:53:03;20.27;;;15.77;;
17818;SDS011;9034;50.284;19.310;2023-09-30T05:54:06;22.70;;;15.95;;
17818;SDS011;9034;50.284;19.310;2023-09-30T05:55:11;19.58;;;15.45;;
17818;SDS011;9034;50.284;19.310;2023-09-30T05:56:13;22.45;;;16.13;;
17818;SDS011;9034;50.284;19.310;2023-09-30T05:57:16;21.63;;;16.23;;
17818;SDS011;9034;50.284;19.310;2023-09-30T05:58:18;19.95;;;15.18;;
17818;SDS011;9034;50.284;19.310;2023-09-30T05:59:21;20.67;;;15.68;;
17818;SDS011;9034;50.284;19.310;2023-09-30T06:00:26;20.33;;;16.40;;
17818;SDS011;9034;50.284;19.310;2023-09-30T06:01:33;24.40;;;16.83;;
17818;SDS011;9034;50.284;19.310;2023-09-30T06:02:35;20.83;;;17.20;;
17818;SDS011;9034;50.284;19.310;2023-09-30T06:03:39;25.02;;;17.73;;
17818;SDS011;9034;50.284;19.310;2023-09-30T06:04:42;21.65;;;17.98;;
17818;SDS011;9034;50.284;19.310;2023-09-30T06:05:46;21.67;;;18.52;;
17818;SDS011;9034;50.284;19.310;2023-09-30T06:06:49;24.27;;;18.38;;
17818;SDS011;9034;50.284;19.310;2023-09-30T06:07:52;23.52;;;19.05;;
17818;SDS011;9034;50.284;19.310;2023-09-30T06:08:55;21.70;;;17.02;;
17818;SDS011;9034;50.284;19.310;2023-09-30T06:09:59;23.38;;;17.88;;